Freeport, Texas
Current Conditions -  °F | °C
As of 10:27 PM on Saturday 22 Nov 2014 (Local Time) from KLBX Reporting Station
Thunderstorm Thunderstorm  
Wind Chill: 64°   Ceiling: 3100
Heat Index: 64°   Visibility: 7mi
Dew Point: 64°   Wind: 10mph
Humidity: 100%   Direction: 170°S
Pressure: 29.79"   Gusts: NA
Location:  28.95°N, 95.34°W
Report Text: KLBX 230427Z AUTO 17009KT 7SM +TSRA FEW008 BKN031 OVC090 18/18 A2979 RMK AO2 LTG DSNT ALQDS TSE20B25 P0073 T01780178
Loading
Personal Weather Stations






























Interactive Weather Map New forecast layout! Learn more

10-Day Weather Forecast

Advertisements
Track Severe Weather on mobile